createdAt,value
2023-03-07T00:01:31.489Z,17.37
2023-03-07T00:07:59.888Z,20.40
2023-03-07T00:10:27.446Z,19.43
2023-03-07T00:12:54.854Z,17.83
2023-03-07T00:15:22.615Z,20.40
2023-03-07T00:17:50.275Z,20.53
2023-03-07T00:20:17.938Z,19.23
2023-03-07T00:22:47.092Z,19.03
2023-03-07T00:25:15.743Z,18.90
2023-03-07T00:27:43.241Z,20.67
2023-03-07T00:30:12.659Z,18.77
2023-03-07T00:32:40.143Z,19.80
2023-03-07T00:35:08.094Z,18.63
2023-03-07T00:37:35.549Z,19.60
2023-03-07T00:40:03.034Z,19.83
2023-03-07T00:42:30.482Z,18.50
2023-03-07T00:44:57.915Z,18.07
2023-03-07T00:47:25.369Z,16.67
2023-03-07T00:49:52.831Z,16.33
2023-03-07T00:52:20.297Z,16.13
2023-03-07T00:54:47.713Z,15.47
2023-03-07T00:57:15.150Z,15.60
2023-03-07T00:59:42.573Z,17.23
2023-03-07T01:02:10.028Z,16.80
2023-03-07T01:04:37.540Z,17.50
2023-03-07T01:07:05.243Z,18.17
2023-03-07T01:09:32.676Z,18.10
2023-03-07T01:12:00.144Z,19.10
2023-03-07T01:14:27.869Z,19.43
2023-03-07T01:16:55.296Z,19.83
2023-03-07T01:19:23.876Z,24.40
2023-03-07T01:21:51.432Z,23.70
2023-03-07T01:24:18.910Z,24.13
2023-03-07T01:26:46.661Z,23.70
2023-03-07T01:29:14.109Z,24.00
2023-03-07T01:31:42.419Z,25.80
2023-03-07T01:34:10.010Z,25.53
2023-03-07T01:36:38.262Z,24.33
2023-03-07T01:39:12.955Z,22.67
2023-03-07T01:41:41.597Z,23.57
2023-03-07T01:44:20.766Z,26.70
2023-03-07T01:46:56.892Z,21.63
2023-03-07T01:49:38.785Z,23.23
2023-03-07T01:52:12.211Z,26.87
2023-03-07T01:54:49.164Z,28.87
2023-03-07T01:57:21.236Z,25.33
2023-03-07T01:59:52.417Z,23.07
2023-03-07T02:02:24.986Z,22.33
2023-03-07T02:04:58.888Z,22.67
2023-03-07T02:07:34.040Z,23.50
2023-03-07T02:10:02.097Z,23.20
2023-03-07T02:12:29.819Z,23.10
2023-03-07T02:14:57.393Z,23.03
2023-03-07T02:17:25.398Z,22.67
2023-03-07T02:20:05.848Z,23.57
2023-03-07T02:22:33.420Z,23.67
2023-03-07T02:25:11.079Z,22.87
2023-03-07T02:27:40.368Z,23.20
2023-03-07T02:30:09.483Z,23.47
2023-03-07T02:32:37.096Z,22.87
2023-03-07T02:35:21.843Z,23.17
2023-03-07T02:37:57.517Z,25.17
2023-03-07T02:40:29.158Z,25.37
2023-03-07T02:43:01.130Z,25.57
2023-03-07T02:45:28.680Z,28.07
2023-03-07T02:47:56.259Z,32.03
2023-03-07T02:50:23.759Z,37.60
2023-03-07T02:52:51.395Z,33.70
2023-03-07T02:55:19.090Z,31.40
2023-03-07T02:57:46.752Z,32.77
2023-03-07T03:00:14.904Z,37.77
2023-03-07T03:02:42.506Z,36.73
2023-03-07T03:05:10.205Z,45.23
2023-03-07T03:07:38.176Z,44.93
2023-03-07T03:10:06.885Z,42.73
2023-03-07T03:12:34.401Z,40.73
2023-03-07T03:15:01.867Z,46.03
2023-03-07T03:17:29.345Z,36.17
2023-03-07T03:19:56.788Z,31.77
2023-03-07T03:22:24.247Z,33.03
2023-03-07T03:24:51.835Z,29.13
2023-03-07T03:27:19.352Z,34.17
2023-03-07T03:29:46.938Z,33.80
2023-03-07T03:32:14.436Z,32.07
2023-03-07T03:34:41.892Z,33.00
2023-03-07T03:37:09.367Z,35.77
2023-03-07T03:39:37.841Z,35.37
2023-03-07T03:42:06.460Z,33.40
2023-03-07T03:44:34.127Z,29.90
2023-03-07T03:47:02.509Z,29.47
2023-03-07T03:49:30.010Z,31.80
2023-03-07T03:51:57.479Z,31.90
2023-03-07T03:54:25.042Z,27.63
2023-03-07T03:56:55.100Z,26.70
2023-03-07T03:59:22.846Z,26.57
2023-03-07T04:01:50.663Z,26.43
2023-03-07T04:04:18.285Z,24.27
2023-03-07T04:06:45.819Z,25.00
2023-03-07T04:09:13.463Z,26.23
2023-03-07T04:11:41.173Z,27.73
2023-03-07T04:14:08.631Z,27.33
2023-03-07T04:16:36.115Z,26.70
2023-03-07T04:19:03.709Z,27.13
2023-03-07T04:21:31.193Z,24.83
2023-03-07T04:23:58.683Z,27.77
2023-03-07T04:26:26.127Z,26.20
2023-03-07T04:28:53.649Z,25.60
2023-03-07T04:31:27.644Z,25.07
2023-03-07T04:33:56.850Z,28.63
2023-03-07T04:36:24.854Z,31.27
2023-03-07T04:38:52.783Z,24.40
2023-03-07T04:41:26.251Z,25.63
2023-03-07T04:43:53.927Z,26.23
2023-03-07T04:46:21.443Z,25.23
2023-03-07T04:48:48.891Z,26.37
2023-03-07T04:51:16.441Z,26.50
2023-03-07T04:53:44.848Z,27.17
2023-03-07T04:56:15.410Z,26.83
2023-03-07T04:58:44.233Z,25.90
2023-03-07T05:01:11.900Z,27.43
2023-03-07T05:03:39.392Z,28.23
2023-03-07T05:06:13.162Z,28.70
2023-03-07T05:08:40.713Z,28.83
2023-03-07T05:11:08.277Z,27.73
2023-03-07T05:13:35.895Z,27.70
2023-03-07T05:16:03.365Z,28.60
2023-03-07T05:18:30.822Z,29.17
2023-03-07T05:20:58.608Z,29.37
2023-03-07T05:23:27.064Z,29.87
2023-03-07T05:25:54.710Z,30.77
2023-03-07T05:28:22.275Z,30.03
2023-03-07T05:30:49.811Z,31.67
2023-03-07T05:33:17.313Z,31.30
2023-03-07T05:35:44.959Z,32.50
2023-03-07T05:38:12.946Z,31.17
2023-03-07T05:40:40.914Z,31.87
2023-03-07T05:43:08.625Z,31.90
2023-03-07T05:45:36.119Z,31.97
2023-03-07T05:48:03.690Z,31.43
2023-03-07T05:50:31.196Z,32.23
2023-03-07T05:52:58.647Z,30.90
2023-03-07T05:55:26.194Z,30.90
2023-03-07T05:57:53.603Z,31.07
2023-03-07T06:00:21.917Z,31.20
2023-03-07T06:02:49.478Z,31.23
2023-03-07T06:05:17.081Z,31.07
2023-03-07T06:07:44.685Z,30.60
2023-03-07T06:10:13.895Z,30.70
2023-03-07T06:12:41.681Z,29.37
2023-03-07T06:15:09.936Z,29.57
2023-03-07T06:17:38.255Z,28.73
2023-03-07T06:20:07.669Z,28.87
2023-03-07T06:22:38.296Z,27.83
2023-03-07T06:25:08.222Z,28.53
2023-03-07T06:27:37.561Z,28.00
2023-03-07T06:30:07.145Z,27.00
2023-03-07T06:32:34.754Z,26.50
2023-03-07T06:35:02.223Z,27.97
2023-03-07T06:37:29.737Z,27.37
2023-03-07T06:39:57.153Z,25.63
2023-03-07T06:42:24.724Z,23.33
2023-03-07T06:44:52.393Z,23.87
2023-03-07T06:47:19.890Z,23.50
2023-03-07T06:49:47.308Z,24.10
2023-03-07T06:52:15.034Z,22.43
2023-03-07T06:54:42.467Z,23.43
2023-03-07T06:57:09.965Z,22.00
2023-03-07T06:59:37.775Z,22.87
2023-03-07T07:02:06.441Z,21.90
2023-03-07T07:04:34.194Z,23.60
2023-03-07T07:07:01.720Z,21.13
2023-03-07T07:09:29.312Z,22.43
2023-03-07T07:11:56.782Z,22.00
2023-03-07T07:14:24.418Z,22.23
2023-03-07T07:16:52.010Z,21.83
2023-03-07T07:19:19.480Z,21.47
2023-03-07T07:21:46.981Z,22.73
2023-03-07T07:24:14.519Z,21.27
2023-03-07T07:26:41.973Z,22.17
2023-03-07T07:29:09.808Z,21.27
2023-03-07T07:31:37.707Z,22.13
2023-03-07T07:34:05.221Z,22.30
2023-03-07T07:36:33.188Z,21.43
2023-03-07T07:39:07.214Z,21.20
2023-03-07T07:41:35.462Z,22.13
2023-03-07T07:44:02.953Z,20.57
2023-03-07T07:46:30.696Z,20.63
2023-03-07T07:48:58.160Z,20.90
2023-03-07T07:51:25.593Z,20.43
2023-03-07T07:53:53.120Z,19.30
2023-03-07T07:56:20.610Z,18.50
2023-03-07T07:58:48.255Z,20.60
2023-03-07T08:01:21.932Z,19.30
2023-03-07T08:03:49.750Z,20.27
2023-03-07T08:06:23.369Z,18.63
2023-03-07T08:08:52.028Z,19.17
2023-03-07T08:11:21.006Z,17.80
2023-03-07T08:13:48.523Z,18.03
2023-03-07T08:16:24.350Z,17.00
2023-03-07T08:18:57.323Z,16.80
2023-03-07T08:21:26.274Z,19.07
2023-03-07T08:23:55.672Z,17.37
2023-03-07T08:26:23.985Z,17.83
2023-03-07T08:28:51.487Z,17.80
2023-03-07T08:31:23.826Z,16.10
2023-03-07T08:33:52.219Z,16.23
2023-03-07T08:36:20.105Z,15.50
2023-03-07T08:38:52.354Z,15.50
2023-03-07T08:41:22.137Z,16.10
2023-03-07T08:43:49.670Z,15.80
2023-03-07T08:46:17.595Z,15.33
2023-03-07T08:48:45.703Z,14.77
2023-03-07T08:51:17.343Z,14.00
2023-03-07T08:53:46.327Z,13.83
2023-03-07T08:56:47.894Z,13.53
2023-03-07T08:59:15.395Z,12.57
2023-03-07T09:01:42.887Z,12.10
2023-03-07T09:04:10.379Z,12.23
2023-03-07T09:06:37.936Z,12.53
2023-03-07T09:09:06.182Z,12.40
2023-03-07T09:11:33.729Z,11.53
2023-03-07T09:14:01.170Z,10.80
2023-03-07T09:16:28.710Z,12.27
2023-03-07T09:18:56.198Z,12.57
2023-03-07T09:21:23.889Z,12.00
2023-03-07T09:23:51.300Z,12.63
2023-03-07T09:26:18.804Z,11.00
2023-03-07T09:28:46.676Z,11.90
2023-03-07T09:31:16.551Z,10.90
2023-03-07T09:33:46.720Z,11.53
2023-03-07T09:36:16.395Z,11.57
2023-03-07T09:38:44.154Z,14.70
2023-03-07T09:41:36.032Z,13.63
2023-03-07T09:44:06.969Z,12.03
2023-03-07T09:47:10.907Z,12.10
2023-03-07T09:49:53.845Z,11.00
2023-03-07T09:52:27.912Z,12.10
2023-03-07T09:55:02.406Z,13.00
2023-03-07T09:58:10.277Z,10.57
2023-03-07T10:00:43.379Z,10.80
2023-03-07T10:03:37.711Z,11.13
2023-03-07T10:06:30.714Z,12.20
2023-03-07T10:09:01.070Z,10.97
2023-03-07T10:12:05.394Z,10.30
2023-03-07T10:14:53.557Z,10.27
2023-03-07T10:17:38.811Z,9.47
2023-03-07T10:20:26.623Z,10.70
2023-03-07T10:22:58.004Z,10.00
2023-03-07T10:26:26.211Z,9.60
2023-03-07T10:28:54.029Z,9.17
2023-03-07T10:31:34.916Z,8.90
2023-03-07T10:34:26.371Z,10.10
2023-03-07T10:37:18.349Z,8.80
2023-03-07T10:39:56.672Z,10.27
2023-03-07T10:42:27.291Z,9.53
2023-03-07T10:44:54.863Z,12.60
2023-03-07T10:47:28.377Z,14.07
2023-03-07T10:50:34.782Z,10.67
2023-03-07T10:53:05.425Z,9.87
2023-03-07T10:55:32.860Z,11.17
2023-03-07T10:58:19.971Z,9.17
2023-03-07T11:01:06.925Z,8.57
2023-03-07T11:03:54.258Z,8.90
2023-03-07T11:06:52.373Z,8.37
2023-03-07T11:09:35.699Z,7.10
2023-03-07T11:12:06.089Z,7.57
2023-03-07T11:14:58.409Z,7.67
2023-03-07T11:17:47.952Z,8.03
2023-03-07T11:20:49.708Z,8.10
2023-03-07T11:23:26.315Z,8.00
2023-03-07T11:25:56.473Z,7.33
2023-03-07T11:28:32.200Z,6.90
2023-03-07T11:31:08.556Z,7.17
2023-03-07T11:33:58.620Z,7.33
2023-03-07T11:36:38.034Z,6.87
2023-03-07T11:39:50.910Z,7.27
2023-03-07T11:42:26.682Z,8.27
2023-03-07T11:45:04.227Z,7.90
2023-03-07T11:47:51.685Z,7.30
2023-03-07T11:50:29.684Z,7.13
2023-03-07T11:53:30.964Z,7.17
2023-03-07T11:56:25.142Z,7.10
2023-03-07T11:59:20.376Z,7.10
2023-03-07T12:01:55.697Z,7.60
2023-03-07T12:04:29.083Z,6.70
2023-03-07T12:07:13.357Z,7.23
2023-03-07T12:09:52.576Z,6.83
2023-03-07T12:12:38.691Z,7.30
2023-03-07T12:15:36.273Z,7.03
2023-03-07T12:18:46.966Z,6.83
2023-03-07T12:21:26.128Z,7.23
2023-03-07T12:24:00.490Z,6.53
2023-03-07T12:26:42.931Z,6.70
2023-03-07T12:29:40.077Z,6.97
2023-03-07T12:32:18.717Z,6.00
2023-03-07T12:35:27.957Z,5.50
2023-03-07T12:38:31.217Z,5.97
2023-03-07T12:41:54.058Z,6.30
2023-03-07T12:44:51.695Z,6.07
2023-03-07T12:47:52.080Z,6.20
2023-03-07T12:50:57.860Z,5.87
2023-03-07T12:53:55.276Z,5.83
2023-03-07T12:56:56.321Z,6.30
2023-03-07T12:59:24.344Z,5.57
2023-03-07T13:01:59.995Z,4.90
2023-03-07T13:04:38.835Z,5.93
2023-03-07T13:07:29.086Z,5.90
2023-03-07T13:09:59.354Z,6.23
2023-03-07T13:12:38.573Z,6.40
2023-03-07T13:15:19.330Z,6.10
2023-03-07T13:17:46.657Z,6.10
2023-03-07T13:20:19.759Z,6.47
2023-03-07T13:22:47.165Z,6.93
2023-03-07T13:25:24.837Z,5.60
2023-03-07T13:27:59.227Z,5.27
2023-03-07T13:30:34.202Z,5.27
2023-03-07T13:33:27.795Z,4.83
2023-03-07T13:35:57.974Z,5.10
2023-03-07T13:38:49.341Z,4.80
2023-03-07T13:41:48.012Z,4.83
2023-03-07T13:44:40.925Z,4.53
2023-03-07T13:47:43.517Z,4.37
2023-03-07T13:50:36.024Z,4.50
2023-03-07T13:53:14.176Z,4.80
2023-03-07T13:56:10.529Z,4.70
2023-03-07T13:58:52.671Z,4.70
2023-03-07T14:01:47.775Z,4.23
2023-03-07T14:04:40.440Z,4.50
2023-03-07T14:07:39.731Z,4.80
2023-03-07T14:10:33.255Z,5.03
2023-03-07T14:13:30.978Z,5.00
2023-03-07T14:16:17.939Z,5.07
2023-03-07T14:19:21.326Z,4.73
2023-03-07T14:22:09.625Z,4.50
2023-03-07T14:24:51.482Z,4.80
2023-03-07T14:27:19.137Z,4.60
2023-03-07T14:29:53.463Z,4.90
2023-03-07T14:32:30.621Z,4.57
2023-03-07T14:34:59.127Z,4.43
2023-03-07T14:37:32.860Z,4.87
2023-03-07T14:40:00.255Z,5.10
2023-03-07T14:42:45.516Z,4.67
2023-03-07T14:45:46.188Z,4.57
2023-03-07T14:48:47.604Z,5.50
2023-03-07T14:51:26.472Z,4.70
2023-03-07T14:53:55.725Z,5.60
2023-03-07T14:56:34.906Z,5.17
2023-03-07T14:59:03.630Z,5.77
2023-03-07T15:01:39.019Z,5.73
2023-03-07T15:04:33.157Z,5.53
2023-03-07T15:07:04.758Z,5.13
2023-03-07T15:09:35.351Z,5.50
2023-03-07T15:12:25.673Z,5.80
2023-03-07T15:14:58.508Z,6.13
2023-03-07T15:17:43.912Z,5.30
2023-03-07T15:20:26.568Z,5.57
2023-03-07T15:23:07.730Z,5.87
2023-03-07T15:25:39.058Z,6.00
2023-03-07T15:28:18.317Z,5.10
2023-03-07T15:30:53.669Z,6.67
2023-03-07T15:33:24.895Z,5.80
2023-03-07T15:36:14.201Z,5.77
2023-03-07T15:38:50.570Z,5.77
2023-03-07T15:41:31.902Z,5.37
2023-03-07T15:44:06.599Z,6.07
2023-03-07T15:46:36.168Z,6.00
2023-03-07T15:49:03.950Z,6.03
2023-03-07T15:51:37.373Z,6.40
2023-03-07T15:54:46.968Z,5.60
2023-03-07T15:57:37.762Z,5.47
2023-03-07T16:00:42.618Z,5.90
2023-03-07T16:03:30.857Z,5.80
2023-03-07T16:06:01.359Z,5.90
2023-03-07T16:08:28.920Z,6.30
2023-03-07T16:11:07.575Z,5.90
2023-03-07T16:13:44.130Z,6.27
2023-03-07T16:16:14.672Z,5.93
2023-03-07T16:18:43.643Z,5.87
2023-03-07T16:21:15.929Z,5.97
2023-03-07T16:23:44.929Z,6.30
2023-03-07T16:26:22.395Z,5.93
2023-03-07T16:28:54.457Z,6.20
2023-03-07T16:31:22.289Z,5.73
2023-03-07T16:33:49.867Z,5.83
2023-03-07T16:36:17.642Z,6.27
2023-03-07T16:38:46.410Z,6.10
2023-03-07T16:41:18.455Z,6.60
2023-03-07T16:43:51.830Z,6.53
2023-03-07T16:46:20.109Z,6.77
2023-03-07T16:48:47.771Z,6.13
2023-03-07T16:51:18.273Z,6.17
2023-03-07T16:53:47.500Z,6.90
2023-03-07T16:56:34.800Z,6.70
2023-03-07T16:59:02.750Z,6.10
2023-03-07T17:01:30.241Z,6.13
2023-03-07T17:03:57.821Z,6.37
2023-03-07T17:06:37.134Z,6.70
2023-03-07T17:09:10.955Z,5.83
2023-03-07T17:11:49.712Z,6.90
2023-03-07T17:14:18.591Z,6.77
2023-03-07T17:16:51.147Z,6.30
2023-03-07T17:19:31.040Z,6.90
2023-03-07T17:22:00.664Z,6.00
2023-03-07T17:24:29.643Z,7.27
2023-03-07T17:27:00.134Z,6.60
2023-03-07T17:29:40.130Z,6.60
2023-03-07T17:32:08.293Z,6.23
2023-03-07T17:34:37.786Z,6.57
2023-03-07T17:37:06.382Z,7.17
2023-03-07T17:39:34.864Z,7.13
2023-03-07T17:42:03.714Z,6.43
2023-03-07T17:44:32.578Z,6.80
2023-03-07T17:47:00.318Z,6.63
2023-03-07T17:49:34.685Z,6.90
2023-03-07T17:52:04.915Z,7.23
2023-03-07T17:54:33.453Z,7.27
2023-03-07T17:57:01.858Z,6.80
2023-03-07T17:59:32.954Z,7.40
2023-03-07T18:02:00.845Z,6.83
2023-03-07T18:04:31.300Z,8.23
2023-03-07T18:07:00.301Z,6.07
2023-03-07T18:09:27.810Z,7.87
2023-03-07T18:11:55.283Z,7.20
2023-03-07T18:14:23.319Z,7.57
2023-03-07T18:16:51.108Z,6.80
2023-03-07T18:19:26.403Z,6.73
2023-03-07T18:21:55.543Z,7.50
2023-03-07T18:24:30.181Z,7.37
2023-03-07T18:26:59.718Z,7.13
2023-03-07T18:29:28.597Z,6.90
2023-03-07T18:31:56.695Z,7.43
2023-03-07T18:34:25.147Z,6.63
2023-03-07T18:36:54.448Z,6.90
2023-03-07T18:39:24.330Z,7.10
2023-03-07T18:41:52.311Z,6.60
2023-03-07T18:44:19.940Z,6.93
2023-03-07T18:46:47.628Z,6.60
2023-03-07T18:49:16.264Z,7.00
2023-03-07T18:51:46.114Z,7.13
2023-03-07T18:54:14.289Z,6.67
2023-03-07T18:56:42.935Z,7.23
2023-03-07T18:59:10.466Z,7.00
2023-03-07T19:01:39.760Z,7.13
2023-03-07T19:04:08.405Z,7.20
2023-03-07T19:06:42.065Z,7.30
2023-03-07T19:09:16.343Z,6.60
2023-03-07T19:11:44.124Z,7.30
2023-03-07T19:14:12.165Z,7.37
2023-03-07T19:16:40.091Z,7.73
2023-03-07T19:19:07.547Z,8.33
2023-03-07T19:21:34.977Z,7.57
2023-03-07T19:24:04.713Z,8.63
2023-03-07T19:26:32.263Z,8.87
2023-03-07T19:28:59.863Z,7.60
2023-03-07T19:31:30.539Z,6.80
2023-03-07T19:33:58.919Z,7.00
2023-03-07T19:36:29.478Z,7.57
2023-03-07T19:38:59.300Z,7.37
2023-03-07T19:41:29.609Z,6.77
2023-03-07T19:43:59.569Z,7.67
2023-03-07T19:46:27.667Z,7.47
2023-03-07T19:48:55.360Z,10.20
2023-03-07T19:51:27.271Z,7.70
2023-03-07T19:53:57.498Z,8.13
2023-03-07T19:56:30.918Z,7.40
2023-03-07T19:59:01.667Z,10.10
2023-03-07T20:01:30.126Z,7.60
2023-03-07T20:03:58.484Z,7.00
2023-03-07T20:06:32.608Z,7.00
2023-03-07T20:09:01.519Z,8.20
2023-03-07T20:11:35.060Z,9.20
2023-03-07T20:14:06.379Z,8.73
2023-03-07T20:16:35.155Z,9.27
2023-03-07T20:19:09.014Z,8.03
2023-03-07T20:21:37.515Z,8.63
2023-03-07T20:24:05.669Z,7.77
2023-03-07T20:26:38.777Z,7.27
2023-03-07T20:29:08.065Z,7.37
2023-03-07T20:31:36.538Z,7.33
2023-03-07T20:34:04.266Z,7.33
2023-03-07T20:36:35.218Z,7.40
2023-03-07T20:39:08.130Z,7.93
2023-03-07T20:41:36.099Z,7.47
2023-03-07T20:44:06.746Z,7.00
2023-03-07T20:46:36.054Z,7.30
2023-03-07T20:49:04.890Z,6.43
2023-03-07T20:51:35.822Z,6.20
2023-03-07T20:54:06.345Z,6.93
2023-03-07T20:56:36.460Z,5.90
2023-03-07T20:59:04.285Z,6.20
2023-03-07T21:01:33.638Z,6.90
2023-03-07T21:04:09.438Z,7.37
2023-03-07T21:06:39.255Z,8.93
2023-03-07T21:09:10.290Z,10.57
2023-03-07T21:11:40.812Z,9.30
2023-03-07T21:14:08.697Z,11.80
2023-03-07T21:16:36.300Z,9.57
2023-03-07T21:19:06.576Z,6.60
2023-03-07T21:21:35.669Z,7.17
2023-03-07T21:24:04.418Z,8.03
2023-03-07T21:26:36.057Z,6.40
2023-03-07T21:29:04.821Z,5.17
2023-03-07T21:31:35.458Z,3.90
2023-03-07T21:34:07.937Z,3.00
2023-03-07T21:36:35.673Z,4.30
2023-03-07T21:39:05.749Z,4.00
2023-03-07T21:41:33.903Z,3.50
2023-03-07T21:44:01.945Z,3.23
2023-03-07T21:46:29.543Z,3.50
2023-03-07T21:48:59.656Z,3.90
2023-03-07T21:51:27.222Z,3.37
2023-03-07T21:53:54.878Z,3.00
2023-03-07T21:56:23.989Z,2.90
2023-03-07T21:58:53.193Z,2.50
2023-03-07T22:01:25.109Z,2.37
2023-03-07T22:03:54.338Z,2.70
2023-03-07T22:06:22.952Z,2.40
2023-03-07T22:08:50.730Z,2.33
2023-03-07T22:11:18.319Z,2.37
2023-03-07T22:13:45.840Z,1.90
2023-03-07T22:16:17.826Z,2.40
2023-03-07T22:18:45.329Z,2.70
2023-03-07T22:21:15.235Z,2.57
2023-03-07T22:23:43.292Z,3.57
2023-03-07T22:26:12.756Z,3.00
2023-03-07T22:28:43.468Z,2.97
2023-03-07T22:31:13.086Z,2.83
2023-03-07T22:33:41.378Z,2.43
2023-03-07T22:36:13.120Z,2.77
2023-03-07T22:38:42.982Z,2.70
2023-03-07T22:41:17.805Z,2.70
2023-03-07T22:43:45.655Z,3.17
2023-03-07T22:46:14.290Z,3.60
2023-03-07T22:48:41.848Z,3.47
2023-03-07T22:51:14.734Z,3.00
2023-03-07T22:53:42.262Z,3.30
2023-03-07T22:56:27.695Z,3.50
2023-03-07T22:58:55.369Z,3.80
2023-03-07T23:01:28.925Z,3.60
2023-03-07T23:03:59.055Z,3.93
2023-03-07T23:06:32.431Z,3.50
2023-03-07T23:09:00.539Z,3.77
2023-03-07T23:11:30.226Z,3.87
2023-03-07T23:13:58.081Z,3.90
2023-03-07T23:16:29.662Z,4.10
2023-03-07T23:18:58.994Z,4.20
2023-03-07T23:21:30.272Z,5.27
2023-03-07T23:23:59.214Z,4.63
2023-03-07T23:26:30.201Z,4.93
2023-03-07T23:28:57.984Z,5.43
2023-03-07T23:31:31.902Z,4.43
2023-03-07T23:34:06.046Z,4.63
2023-03-07T23:36:34.817Z,4.70
2023-03-07T23:39:02.565Z,4.57
2023-03-07T23:41:30.086Z,5.87
2023-03-07T23:43:59.987Z,7.40
2023-03-07T23:46:29.686Z,7.50
2023-03-07T23:48:57.929Z,8.87
2023-03-07T23:51:25.628Z,7.97
2023-03-07T23:53:53.141Z,6.70
2023-03-07T23:56:20.700Z,6.87
2023-03-07T23:58:52.646Z,6.23
